createdAt,value
2019-05-14T00:00:48.627Z,0.00
2019-05-14T00:01:51.268Z,0.00
2019-05-14T00:02:48.810Z,0.00
2019-05-14T00:03:48.895Z,0.00
2019-05-14T00:04:51.038Z,0.00
2019-05-14T00:05:51.479Z,0.00
2019-05-14T00:06:49.161Z,0.00
2019-05-14T00:07:51.954Z,0.00
2019-05-14T00:08:49.344Z,0.00
2019-05-14T00:09:51.723Z,0.00
2019-05-14T00:10:51.798Z,0.00
2019-05-14T00:11:51.279Z,0.00
2019-05-14T00:12:51.274Z,0.00
2019-05-14T00:13:51.853Z,0.00
2019-05-14T00:14:51.647Z,0.00
2019-05-14T00:15:51.955Z,0.00
2019-05-14T00:16:51.303Z,0.00
2019-05-14T00:17:52.158Z,0.00
2019-05-14T00:18:51.174Z,0.00
2019-05-14T00:20:05.970Z,0.00
2019-05-14T00:20:51.209Z,0.00
2019-05-14T00:21:51.395Z,0.00
2019-05-14T00:22:52.187Z,0.00
2019-05-14T00:23:51.439Z,0.00
2019-05-14T00:24:52.054Z,0.00
2019-05-14T00:25:52.297Z,0.00
2019-05-14T00:26:51.734Z,0.00
2019-05-14T00:27:51.891Z,0.00
2019-05-14T00:28:51.367Z,0.00
2019-05-14T00:29:51.856Z,0.00
2019-05-14T00:30:52.446Z,0.00
2019-05-14T00:31:51.734Z,0.00
2019-05-14T00:32:52.090Z,0.00
2019-05-14T00:33:51.573Z,0.00
2019-05-14T00:34:51.826Z,0.00
2019-05-14T00:35:51.756Z,0.00
2019-05-14T00:36:52.546Z,0.00
2019-05-14T00:37:52.190Z,0.00
2019-05-14T00:38:52.014Z,0.00
2019-05-14T00:39:52.337Z,0.00
2019-05-14T00:40:52.188Z,0.00
2019-05-14T00:41:52.286Z,0.00
2019-05-14T00:42:53.275Z,0.00
2019-05-14T00:43:52.449Z,0.00
2019-05-14T00:44:57.710Z,0.00
2019-05-14T00:45:52.635Z,0.00
2019-05-14T00:46:52.728Z,0.00
2019-05-14T00:47:52.810Z,0.00
2019-05-14T00:48:52.891Z,0.00
2019-05-14T00:49:52.988Z,0.00
2019-05-14T00:50:53.077Z,0.00
2019-05-14T00:51:53.168Z,0.00
2019-05-14T00:52:53.260Z,0.00
2019-05-14T00:53:53.347Z,0.00
2019-05-14T00:54:53.448Z,0.00
2019-05-14T00:55:53.527Z,0.00
2019-05-14T00:56:53.618Z,0.00
2019-05-14T00:57:53.713Z,0.00
2019-05-14T00:58:53.804Z,0.00
2019-05-14T00:59:53.892Z,0.00
2019-05-14T01:00:53.975Z,0.00
2019-05-14T01:01:54.068Z,0.00
2019-05-14T01:02:54.150Z,0.00
2019-05-14T01:03:54.255Z,0.00
2019-05-14T01:04:54.328Z,0.00
2019-05-14T01:05:54.418Z,0.00
2019-05-14T01:06:54.506Z,0.00
2019-05-14T01:07:54.597Z,0.00
2019-05-14T01:08:54.690Z,0.00
2019-05-14T01:09:54.770Z,0.00
2019-05-14T01:10:54.861Z,0.00
2019-05-14T01:11:54.945Z,0.00
2019-05-14T01:12:55.034Z,0.00
2019-05-14T01:13:55.119Z,0.00
2019-05-14T01:15:06.958Z,0.00
2019-05-14T01:15:55.296Z,0.00
2019-05-14T01:16:55.385Z,0.00
2019-05-14T01:17:55.471Z,0.00
2019-05-14T01:18:55.556Z,0.00
2019-05-14T01:19:55.648Z,0.00
2019-05-14T01:20:55.736Z,0.00
2019-05-14T01:21:55.827Z,0.00
2019-05-14T01:22:55.916Z,0.00
2019-05-14T01:23:56.004Z,0.00
2019-05-14T01:24:56.096Z,0.00
2019-05-14T01:25:56.190Z,0.00
2019-05-14T01:26:56.270Z,0.00
2019-05-14T01:27:56.356Z,0.00
2019-05-14T01:28:56.444Z,0.00
2019-05-14T01:29:56.533Z,0.00
2019-05-14T01:30:56.622Z,0.00
2019-05-14T01:31:56.708Z,0.00
2019-05-14T01:32:56.795Z,0.00
2019-05-14T01:33:56.887Z,0.00
2019-05-14T01:34:56.976Z,0.00
2019-05-14T01:35:57.064Z,0.00
2019-05-14T01:36:57.152Z,0.00
2019-05-14T01:37:57.242Z,0.00
2019-05-14T01:38:57.328Z,0.00
2019-05-14T01:39:57.421Z,0.00
2019-05-14T01:40:57.509Z,0.00
2019-05-14T01:41:57.594Z,0.00
2019-05-14T01:42:57.683Z,0.00
2019-05-14T01:43:57.774Z,0.00
2019-05-14T01:44:57.862Z,0.00
2019-05-14T01:45:57.953Z,0.00
2019-05-14T01:46:58.043Z,0.00
2019-05-14T01:47:58.130Z,0.00
2019-05-14T01:48:58.216Z,0.00
2019-05-14T01:49:58.304Z,0.00
2019-05-14T01:50:58.392Z,0.00
2019-05-14T01:51:58.484Z,0.00
2019-05-14T01:52:58.579Z,0.00
2019-05-14T01:53:58.658Z,0.00
2019-05-14T01:54:58.746Z,0.00
2019-05-14T01:56:01.322Z,0.00
2019-05-14T01:56:58.919Z,0.00
2019-05-14T01:57:59.003Z,0.00
2019-05-14T01:59:01.467Z,0.00
2019-05-14T01:59:59.184Z,0.00
2019-05-14T02:01:01.714Z,0.00
2019-05-14T02:01:59.359Z,0.00
2019-05-14T02:03:01.589Z,0.00
2019-05-14T02:03:59.524Z,0.00
2019-05-14T02:05:01.834Z,0.00
2019-05-14T02:06:01.512Z,0.00
2019-05-14T02:07:01.801Z,0.00
2019-05-14T02:08:01.773Z,0.00
2019-05-14T02:09:01.949Z,0.00
2019-05-14T02:10:01.185Z,0.00
2019-05-14T02:11:01.714Z,0.00
2019-05-14T02:12:02.195Z,0.00
2019-05-14T02:13:02.031Z,0.00
2019-05-14T02:14:02.220Z,0.00
2019-05-14T02:15:01.925Z,0.00
2019-05-14T02:16:01.336Z,0.00
2019-05-14T02:17:01.947Z,0.00
2019-05-14T02:18:02.376Z,0.00
2019-05-14T02:19:01.399Z,0.00
2019-05-14T02:20:02.153Z,0.00
2019-05-14T02:21:01.570Z,0.00
2019-05-14T02:22:02.083Z,0.00
2019-05-14T02:23:01.666Z,0.00
2019-05-14T02:24:02.000Z,0.00
2019-05-14T02:25:02.364Z,0.00
2019-05-14T02:26:02.520Z,0.00
2019-05-14T02:27:02.006Z,0.00
2019-05-14T02:28:01.653Z,0.00
2019-05-14T02:29:02.101Z,0.00
2019-05-14T02:30:02.298Z,0.00
2019-05-14T02:31:03.966Z,0.00
2019-05-14T02:32:02.021Z,0.00
2019-05-14T02:33:02.082Z,0.00
2019-05-14T02:34:02.167Z,0.00
2019-05-14T02:35:02.265Z,0.00
2019-05-14T02:36:02.339Z,0.00
2019-05-14T02:37:02.421Z,0.00
2019-05-14T02:38:02.507Z,0.00
2019-05-14T02:39:02.593Z,0.00
2019-05-14T02:40:02.694Z,0.00
2019-05-14T02:41:02.765Z,0.00
2019-05-14T02:42:02.870Z,0.00
2019-05-14T02:43:02.947Z,0.00
2019-05-14T02:44:03.038Z,0.00
2019-05-14T02:45:03.150Z,0.00
2019-05-14T02:46:11.861Z,0.00
2019-05-14T02:47:03.299Z,0.00
2019-05-14T02:48:03.390Z,0.00
2019-05-14T02:49:03.476Z,0.00
2019-05-14T02:50:03.564Z,0.00
2019-05-14T02:51:03.646Z,0.00
2019-05-14T02:52:03.741Z,0.00
2019-05-14T02:53:03.831Z,0.00
2019-05-14T02:54:03.917Z,0.00
2019-05-14T02:55:04.008Z,0.00
2019-05-14T02:56:04.095Z,0.00
2019-05-14T02:57:04.182Z,0.00
2019-05-14T02:58:04.275Z,0.00
2019-05-14T02:59:05.917Z,0.00
2019-05-14T03:00:04.451Z,0.00
2019-05-14T03:01:04.540Z,0.00
2019-05-14T03:02:04.623Z,0.00
2019-05-14T03:03:04.718Z,0.00
2019-05-14T03:04:04.824Z,0.00
2019-05-14T03:05:04.909Z,0.00
2019-05-14T03:06:04.998Z,0.00
2019-05-14T03:07:05.099Z,0.00
2019-05-14T03:08:05.184Z,0.00
2019-05-14T03:09:05.266Z,0.00
2019-05-14T03:10:05.357Z,0.00
2019-05-14T03:11:05.444Z,0.00
2019-05-14T03:12:05.530Z,0.00
2019-05-14T03:13:05.630Z,0.00
2019-05-14T03:14:08.853Z,0.00
2019-05-14T03:15:09.292Z,0.00
2019-05-14T03:16:22.198Z,0.00
2019-05-14T03:17:05.982Z,0.00
2019-05-14T03:18:09.047Z,0.00
2019-05-14T03:19:06.166Z,0.00
2019-05-14T03:20:08.850Z,0.00
2019-05-14T03:21:09.135Z,0.00
2019-05-14T03:22:09.773Z,0.00
2019-05-14T03:23:09.862Z,0.00
2019-05-14T03:24:09.127Z,5.63
2019-05-14T03:25:09.925Z,5.63
2019-05-14T03:26:09.661Z,5.63
2019-05-14T03:27:09.530Z,5.63
2019-05-14T03:28:09.240Z,5.63
2019-05-14T03:29:09.847Z,5.63
2019-05-14T03:30:12.012Z,5.63
2019-05-14T03:31:12.212Z,5.63
2019-05-14T03:32:13.051Z,5.63
2019-05-14T03:33:12.719Z,11.25
2019-05-14T03:34:12.693Z,11.25
2019-05-14T03:35:13.318Z,11.25
2019-05-14T03:36:16.010Z,11.25
2019-05-14T03:37:13.137Z,11.25
2019-05-14T03:38:09.470Z,16.88
2019-05-14T03:39:10.478Z,16.88
2019-05-14T03:40:09.267Z,16.88
2019-05-14T03:41:09.749Z,16.88
2019-05-14T03:42:09.405Z,16.88
2019-05-14T03:43:09.009Z,22.50
2019-05-14T03:44:09.906Z,22.50
2019-05-14T03:45:08.658Z,22.50
2019-05-14T03:46:09.684Z,22.50
2019-05-14T03:47:10.166Z,28.13
2019-05-14T03:48:10.258Z,28.13
2019-05-14T03:49:09.425Z,28.13
2019-05-14T03:50:10.102Z,28.13
2019-05-14T03:51:09.235Z,33.75
2019-05-14T03:52:09.860Z,33.75
2019-05-14T03:53:10.051Z,33.75
2019-05-14T03:54:12.726Z,39.38
2019-05-14T03:55:09.829Z,39.38
2019-05-14T03:56:10.345Z,39.38
2019-05-14T03:57:09.799Z,45.00
2019-05-14T03:58:09.987Z,45.00
2019-05-14T03:59:09.939Z,45.00
2019-05-14T04:00:10.407Z,45.00
2019-05-14T04:01:09.884Z,50.63
2019-05-14T04:02:10.067Z,50.63
2019-05-14T04:03:10.025Z,50.63
2019-05-14T04:04:10.582Z,50.63
2019-05-14T04:05:10.210Z,56.25
2019-05-14T04:06:10.319Z,56.25
2019-05-14T04:07:10.379Z,56.25
2019-05-14T04:08:10.464Z,61.88
2019-05-14T04:09:10.557Z,61.88
2019-05-14T04:10:10.683Z,61.88
2019-05-14T04:11:10.730Z,61.88
2019-05-14T04:12:10.817Z,67.50
2019-05-14T04:13:10.907Z,67.50
2019-05-14T04:14:10.993Z,67.50
2019-05-14T04:15:11.090Z,73.13
2019-05-14T04:16:11.177Z,73.13
2019-05-14T04:17:15.463Z,73.13
2019-05-14T04:18:11.346Z,78.75
2019-05-14T04:19:11.437Z,78.75
2019-05-14T04:20:11.526Z,78.75
2019-05-14T04:21:11.606Z,84.38
2019-05-14T04:22:11.688Z,84.38
2019-05-14T04:23:11.780Z,90.00
2019-05-14T04:24:11.871Z,90.00
2019-05-14T04:25:11.960Z,90.00
2019-05-14T04:26:12.049Z,95.63
2019-05-14T04:27:13.165Z,95.63
2019-05-14T04:28:12.230Z,95.63
2019-05-14T04:29:12.317Z,95.63
2019-05-14T04:30:12.409Z,101.25
2019-05-14T04:31:12.495Z,101.25
2019-05-14T04:32:12.644Z,101.25
2019-05-14T04:33:12.670Z,106.88
2019-05-14T04:34:12.758Z,106.88
2019-05-14T04:35:12.852Z,106.88
2019-05-14T04:36:12.933Z,112.50
2019-05-14T04:37:13.022Z,112.50
2019-05-14T04:38:13.109Z,112.50
2019-05-14T04:39:13.202Z,112.50
2019-05-14T04:40:13.290Z,118.13
2019-05-14T04:41:13.382Z,118.13
2019-05-14T04:42:13.468Z,118.13
2019-05-14T04:43:13.556Z,123.75
2019-05-14T04:44:13.639Z,123.75
2019-05-14T04:45:13.729Z,129.38
2019-05-14T04:46:13.815Z,129.38
2019-05-14T04:47:28.016Z,135.00
2019-05-14T04:48:31.090Z,135.00
2019-05-14T04:49:14.071Z,135.00
2019-05-14T04:50:14.168Z,140.63
2019-05-14T04:51:14.257Z,140.63
2019-05-14T04:52:14.343Z,140.63
2019-05-14T04:53:14.433Z,146.25
2019-05-14T04:54:14.524Z,146.25
2019-05-14T04:55:14.610Z,146.25
2019-05-14T04:56:14.693Z,146.25
2019-05-14T04:57:14.777Z,151.88
2019-05-14T04:58:14.876Z,151.88
2019-05-14T04:59:14.967Z,151.88
2019-05-14T05:00:15.053Z,151.88
2019-05-14T05:01:15.164Z,151.88
2019-05-14T05:02:15.244Z,157.50
2019-05-14T05:03:15.339Z,157.50
2019-05-14T05:04:15.423Z,157.50
2019-05-14T05:05:15.513Z,163.13
2019-05-14T05:06:15.600Z,163.13
2019-05-14T05:07:18.934Z,163.13
2019-05-14T05:08:15.781Z,163.13
2019-05-14T05:09:15.869Z,163.13
2019-05-14T05:10:19.033Z,168.75
2019-05-14T05:11:17.332Z,168.75
2019-05-14T05:12:19.447Z,168.75
2019-05-14T05:13:18.463Z,174.38
2019-05-14T05:14:18.967Z,174.38
2019-05-14T05:15:16.399Z,174.38
2019-05-14T05:16:18.985Z,180.00
2019-05-14T05:17:19.364Z,180.00
2019-05-14T05:18:18.663Z,180.00
2019-05-14T05:19:19.440Z,180.00
2019-05-14T05:20:19.308Z,180.00
2019-05-14T05:21:18.990Z,180.00
2019-05-14T05:22:19.422Z,180.00
2019-05-14T05:23:18.935Z,180.00
2019-05-14T05:24:18.389Z,185.63
2019-05-14T05:25:18.910Z,185.63
2019-05-14T05:26:18.427Z,185.63
2019-05-14T05:27:18.457Z,185.63
2019-05-14T05:28:19.055Z,191.25
2019-05-14T05:29:18.602Z,202.50
2019-05-14T05:30:19.001Z,196.88
2019-05-14T05:31:18.500Z,196.88
2019-05-14T05:32:19.391Z,202.50
2019-05-14T05:33:18.747Z,309.38
2019-05-14T05:34:19.277Z,815.63
2019-05-14T05:35:18.700Z,1091.25
2019-05-14T05:36:18.581Z,787.50
2019-05-14T05:37:19.086Z,1175.63
2019-05-14T05:38:18.512Z,2030.63
2019-05-14T05:39:19.032Z,1738.13
2019-05-14T05:40:19.684Z,967.50
2019-05-14T05:41:19.281Z,675.00
2019-05-14T05:42:19.069Z,646.88
2019-05-14T05:43:19.222Z,1231.88
2019-05-14T05:44:19.069Z,2176.88
2019-05-14T05:45:19.166Z,2463.75
2019-05-14T05:46:19.477Z,2446.88
2019-05-14T05:47:19.337Z,2430.00
2019-05-14T05:48:19.438Z,2435.63
2019-05-14T05:49:19.593Z,2486.25
2019-05-14T05:50:19.562Z,2520.00
2019-05-14T05:51:19.657Z,2508.75
2019-05-14T05:52:19.739Z,2508.75
2019-05-14T05:53:19.835Z,2525.63
2019-05-14T05:54:19.925Z,2536.88
2019-05-14T05:55:20.027Z,2581.88
2019-05-14T05:56:20.119Z,2626.88
2019-05-14T05:57:20.214Z,2632.50
2019-05-14T05:58:20.315Z,2615.63
2019-05-14T05:59:20.415Z,2587.50
2019-05-14T06:00:20.493Z,2565.00
2019-05-14T06:01:20.588Z,2542.50
2019-05-14T06:02:20.683Z,2503.13
2019-05-14T06:03:21.160Z,2503.13
2019-05-14T06:04:20.867Z,2469.38
2019-05-14T06:05:20.982Z,2418.75
2019-05-14T06:06:21.055Z,2306.25
2019-05-14T06:07:21.156Z,2323.13
2019-05-14T06:08:21.259Z,1575.00
2019-05-14T06:09:21.354Z,585.00
2019-05-14T06:10:21.449Z,675.00
2019-05-14T06:11:21.542Z,1383.75
2019-05-14T06:12:21.640Z,2143.13
2019-05-14T06:13:21.745Z,2317.50
2019-05-14T06:14:21.850Z,2289.38
2019-05-14T06:15:21.935Z,2283.75
2019-05-14T06:16:22.036Z,2278.13
2019-05-14T06:17:22.140Z,2266.88
2019-05-14T06:18:22.367Z,2278.13
2019-05-14T06:19:22.341Z,2272.50
2019-05-14T06:20:22.439Z,2036.25
2019-05-14T06:21:22.537Z,1473.75
2019-05-14T06:22:22.633Z,826.88
2019-05-14T06:23:22.736Z,376.88
2019-05-14T06:24:22.818Z,326.25
2019-05-14T06:25:22.917Z,320.63
2019-05-14T06:26:23.037Z,315.00
2019-05-14T06:27:23.130Z,315.00
2019-05-14T06:28:23.233Z,315.00
2019-05-14T06:29:23.342Z,315.00
2019-05-14T06:30:23.447Z,315.00
2019-05-14T06:31:23.559Z,315.00
2019-05-14T06:32:23.698Z,315.00
2019-05-14T06:33:23.786Z,315.00
2019-05-14T06:34:23.887Z,315.00
2019-05-14T06:35:23.985Z,315.00
2019-05-14T06:36:24.083Z,320.63
2019-05-14T06:37:24.183Z,320.63
2019-05-14T06:38:24.270Z,320.63
2019-05-14T06:39:24.376Z,331.88
2019-05-14T06:40:24.476Z,326.25
2019-05-14T06:41:24.590Z,331.88
2019-05-14T06:42:24.665Z,326.25
2019-05-14T06:43:24.777Z,326.25
2019-05-14T06:44:24.875Z,326.25
2019-05-14T06:45:24.973Z,326.25
2019-05-14T06:46:25.069Z,326.25
2019-05-14T06:47:25.167Z,326.25
2019-05-14T06:48:30.282Z,315.00
2019-05-14T06:49:25.360Z,326.25
2019-05-14T06:50:28.325Z,326.25
2019-05-14T06:51:25.552Z,326.25
2019-05-14T06:52:25.664Z,331.88
2019-05-14T06:53:28.757Z,331.88
2019-05-14T06:54:25.871Z,320.63
2019-05-14T06:55:28.313Z,326.25
2019-05-14T06:56:28.134Z,320.63
2019-05-14T06:57:28.385Z,326.25
2019-05-14T06:58:26.260Z,326.25
2019-05-14T06:59:28.584Z,315.00
2019-05-14T07:00:28.572Z,326.25
2019-05-14T07:01:28.965Z,326.25
2019-05-14T07:02:28.500Z,320.63
2019-05-14T07:03:28.178Z,326.25
2019-05-14T07:04:28.850Z,320.63
2019-05-14T07:05:28.159Z,320.63
2019-05-14T07:06:29.022Z,326.25
2019-05-14T07:07:29.721Z,326.25
2019-05-14T07:08:28.486Z,326.25
2019-05-14T07:09:28.969Z,320.63
2019-05-14T07:10:28.669Z,326.25
2019-05-14T07:11:29.218Z,326.25
2019-05-14T07:12:29.375Z,326.25
2019-05-14T07:13:29.172Z,320.63
2019-05-14T07:14:28.299Z,320.63
2019-05-14T07:15:29.049Z,320.63
2019-05-14T07:16:28.704Z,320.63
2019-05-14T07:17:28.737Z,326.25
2019-05-14T07:18:33.283Z,326.25
2019-05-14T07:19:29.428Z,326.25
2019-05-14T07:20:28.399Z,331.88
2019-05-14T07:21:29.150Z,331.88
2019-05-14T07:22:28.557Z,326.25
2019-05-14T07:23:29.090Z,331.88
2019-05-14T07:24:28.738Z,337.50
2019-05-14T07:25:28.843Z,343.13
2019-05-14T07:26:29.536Z,337.50
2019-05-14T07:27:29.040Z,331.88
2019-05-14T07:28:29.165Z,337.50
2019-05-14T07:29:29.507Z,343.13
2019-05-14T07:30:29.370Z,337.50
2019-05-14T07:31:29.478Z,337.50
2019-05-14T07:32:29.588Z,337.50
2019-05-14T07:33:29.696Z,331.88
2019-05-14T07:34:29.792Z,331.88
2019-05-14T07:35:29.890Z,331.88
2019-05-14T07:36:29.979Z,331.88
2019-05-14T07:37:30.078Z,337.50
2019-05-14T07:38:30.176Z,331.88
2019-05-14T07:39:30.285Z,337.50
2019-05-14T07:40:30.365Z,343.13
2019-05-14T07:41:30.463Z,343.13
2019-05-14T07:42:30.569Z,343.13
2019-05-14T07:43:30.666Z,354.38
2019-05-14T07:44:30.756Z,360.00
2019-05-14T07:45:33.300Z,354.38
2019-05-14T07:46:30.942Z,360.00
2019-05-14T07:47:31.034Z,365.63
2019-05-14T07:48:31.133Z,360.00
2019-05-14T07:49:31.241Z,360.00
2019-05-14T07:50:31.356Z,365.63
2019-05-14T07:51:31.445Z,365.63
2019-05-14T07:52:31.547Z,371.25
2019-05-14T07:53:38.504Z,371.25
2019-05-14T07:54:31.723Z,376.88
2019-05-14T07:55:31.826Z,382.50
2019-05-14T07:56:31.934Z,388.13
2019-05-14T07:57:32.010Z,399.38
2019-05-14T07:58:32.120Z,416.25
2019-05-14T07:59:32.213Z,421.88
2019-05-14T08:00:32.320Z,438.75
2019-05-14T08:01:32.432Z,455.63
2019-05-14T08:02:32.542Z,444.38
2019-05-14T08:03:32.647Z,371.25
2019-05-14T08:04:32.742Z,450.00
2019-05-14T08:05:32.837Z,416.25
2019-05-14T08:06:32.921Z,416.25
2019-05-14T08:07:33.035Z,421.88
2019-05-14T08:08:33.101Z,421.88
2019-05-14T08:09:33.200Z,393.75
2019-05-14T08:10:33.310Z,292.50
2019-05-14T08:11:33.411Z,281.25
2019-05-14T08:12:33.509Z,421.88
2019-05-14T08:13:33.600Z,393.75
2019-05-14T08:14:42.194Z,376.88
2019-05-14T08:15:33.809Z,348.75
2019-05-14T08:16:33.901Z,399.38
2019-05-14T08:17:34.009Z,416.25
2019-05-14T08:18:34.093Z,433.13
2019-05-14T08:19:34.621Z,427.50
2019-05-14T08:20:34.278Z,416.25
2019-05-14T08:21:34.372Z,410.63
2019-05-14T08:22:34.475Z,427.50
2019-05-14T08:23:34.577Z,433.13
2019-05-14T08:24:34.664Z,433.13
2019-05-14T08:25:34.756Z,444.38
2019-05-14T08:26:34.861Z,444.38
2019-05-14T08:27:34.962Z,433.13
2019-05-14T08:28:35.058Z,410.63
2019-05-14T08:29:39.128Z,320.63
2019-05-14T08:30:35.242Z,309.38
2019-05-14T08:31:35.339Z,399.38
2019-05-14T08:32:35.433Z,343.13
2019-05-14T08:33:35.529Z,298.13
2019-05-14T08:34:35.621Z,320.63
2019-05-14T08:35:35.718Z,326.25
2019-05-14T08:36:37.794Z,433.13
2019-05-14T08:37:35.908Z,405.00
2019-05-14T08:38:38.072Z,410.63
2019-05-14T08:39:36.112Z,405.00
2019-05-14T08:40:37.720Z,399.38
2019-05-14T08:41:38.352Z,393.75
2019-05-14T08:42:37.899Z,393.75
2019-05-14T08:43:36.470Z,399.38
2019-05-14T08:44:38.763Z,427.50
2019-05-14T08:45:38.785Z,455.63
2019-05-14T08:46:38.692Z,303.75
2019-05-14T08:47:38.607Z,292.50
2019-05-14T08:48:38.949Z,315.00
2019-05-14T08:49:45.492Z,500.63
2019-05-14T08:50:38.735Z,500.63
2019-05-14T08:51:38.806Z,523.13
2019-05-14T08:52:39.311Z,472.50
2019-05-14T08:53:38.505Z,399.38
2019-05-14T08:54:39.091Z,343.13
2019-05-14T08:55:38.140Z,303.75
2019-05-14T08:56:38.921Z,281.25
2019-05-14T08:57:38.712Z,331.88
2019-05-14T08:58:38.472Z,399.38
2019-05-14T08:59:39.589Z,455.63
2019-05-14T09:00:38.772Z,348.75
2019-05-14T09:01:38.762Z,410.63
2019-05-14T09:02:39.301Z,545.63
2019-05-14T09:03:39.188Z,540.00
2019-05-14T09:04:43.045Z,534.38
2019-05-14T09:05:38.750Z,511.88
2019-05-14T09:06:38.681Z,506.25
2019-05-14T09:07:38.752Z,315.00
2019-05-14T09:08:39.290Z,303.75
2019-05-14T09:09:38.943Z,309.38
2019-05-14T09:10:40.190Z,292.50
2019-05-14T09:11:45.007Z,286.88
2019-05-14T09:12:39.235Z,292.50
2019-05-14T09:13:39.332Z,309.38
2019-05-14T09:14:39.426Z,309.38
2019-05-14T09:15:39.523Z,309.38
2019-05-14T09:16:46.903Z,315.00
2019-05-14T09:17:39.719Z,331.88
2019-05-14T09:18:39.807Z,343.13
2019-05-14T09:19:57.183Z,348.75
2019-05-14T09:20:39.996Z,343.13
2019-05-14T09:21:40.097Z,331.88
2019-05-14T09:22:40.187Z,315.00
2019-05-14T09:23:40.279Z,286.88
2019-05-14T09:24:40.371Z,270.00
2019-05-14T09:25:47.021Z,264.38
2019-05-14T09:26:40.574Z,264.38
2019-05-14T09:27:40.670Z,450.00
2019-05-14T09:28:40.761Z,472.50
2019-05-14T09:29:40.859Z,298.13
2019-05-14T09:30:40.952Z,511.88
2019-05-14T09:31:41.055Z,517.50
2019-05-14T09:32:41.140Z,506.25
2019-05-14T09:33:41.246Z,511.88
2019-05-14T09:34:41.346Z,523.13
2019-05-14T09:35:41.436Z,551.25
2019-05-14T09:36:41.531Z,523.13
2019-05-14T09:37:41.626Z,495.00
2019-05-14T09:38:42.654Z,472.50
2019-05-14T09:39:41.874Z,472.50
2019-05-14T09:40:41.928Z,483.75
2019-05-14T09:41:42.029Z,489.38
2019-05-14T09:42:42.128Z,292.50
2019-05-14T09:43:42.220Z,298.13
2019-05-14T09:44:42.313Z,298.13
2019-05-14T09:45:42.412Z,331.88
2019-05-14T09:46:42.503Z,326.25
2019-05-14T09:47:42.600Z,528.75
2019-05-14T09:48:42.692Z,517.50
2019-05-14T09:49:42.801Z,517.50
2019-05-14T09:50:42.889Z,523.13
2019-05-14T09:51:43.005Z,517.50
2019-05-14T09:52:43.081Z,331.88
2019-05-14T09:53:43.179Z,540.00
2019-05-14T09:54:44.101Z,556.88
2019-05-14T09:55:43.370Z,551.25
2019-05-14T09:56:43.467Z,337.50
2019-05-14T09:57:43.569Z,337.50
2019-05-14T09:58:43.661Z,331.88
2019-05-14T09:59:43.747Z,337.50
2019-05-14T10:00:43.850Z,421.88
2019-05-14T10:01:43.949Z,427.50
2019-05-14T10:02:44.044Z,405.00
2019-05-14T10:03:44.136Z,388.13
2019-05-14T10:04:44.233Z,444.38
2019-05-14T10:05:44.329Z,365.63
2019-05-14T10:06:44.436Z,365.63
2019-05-14T10:07:44.516Z,382.50
2019-05-14T10:08:44.608Z,596.25
2019-05-14T10:09:44.715Z,601.88
2019-05-14T10:10:44.811Z,613.13
2019-05-14T10:11:44.906Z,613.13
2019-05-14T10:12:54.049Z,613.13
2019-05-14T10:13:45.093Z,590.63
2019-05-14T10:14:45.212Z,579.38
2019-05-14T10:15:45.297Z,556.88
2019-05-14T10:16:45.389Z,551.25
2019-05-14T10:17:45.481Z,534.38
2019-05-14T10:18:45.584Z,534.38
2019-05-14T10:19:45.667Z,388.13
2019-05-14T10:20:49.032Z,528.75
2019-05-14T10:21:45.868Z,534.38
2019-05-14T10:22:48.115Z,551.25
2019-05-14T10:23:46.051Z,562.50
2019-05-14T10:24:46.152Z,579.38
2019-05-14T10:25:46.250Z,601.88
2019-05-14T10:26:48.269Z,624.38
2019-05-14T10:27:48.576Z,601.88
2019-05-14T10:28:48.461Z,585.00
2019-05-14T10:29:48.262Z,568.13
2019-05-14T10:30:48.954Z,562.50
2019-05-14T10:31:48.556Z,568.13
2019-05-14T10:32:49.284Z,573.75
2019-05-14T10:33:48.515Z,607.50
2019-05-14T10:34:48.539Z,624.38
2019-05-14T10:35:48.511Z,641.25
2019-05-14T10:36:47.353Z,635.63
2019-05-14T10:37:47.463Z,421.88
2019-05-14T10:38:47.558Z,416.25
2019-05-14T10:39:47.659Z,421.88
2019-05-14T10:40:47.751Z,427.50
2019-05-14T10:41:47.841Z,433.13
2019-05-14T10:42:49.487Z,433.13
2019-05-14T10:43:49.630Z,421.88
2019-05-14T10:44:48.128Z,421.88
2019-05-14T10:45:49.426Z,433.13
2019-05-14T10:46:48.337Z,461.25
2019-05-14T10:47:49.441Z,472.50
2019-05-14T10:48:48.562Z,663.75
2019-05-14T10:49:48.674Z,652.50
2019-05-14T10:50:59.124Z,540.00
2019-05-14T10:51:48.882Z,427.50
2019-05-14T10:52:49.098Z,433.13
2019-05-14T10:53:49.291Z,461.25
2019-05-14T10:54:55.801Z,461.25
2019-05-14T10:55:49.265Z,472.50
2019-05-14T10:56:49.612Z,641.25
2019-05-14T10:57:54.182Z,478.13
2019-05-14T10:58:49.557Z,466.88
2019-05-14T10:59:49.665Z,635.63
2019-05-14T11:00:49.756Z,450.00
2019-05-14T11:01:49.861Z,433.13
2019-05-14T11:02:49.938Z,416.25
2019-05-14T11:03:50.037Z,410.63
2019-05-14T11:04:50.111Z,596.25
2019-05-14T11:05:50.212Z,388.13
2019-05-14T11:06:50.307Z,393.75
2019-05-14T11:07:50.399Z,399.38
2019-05-14T11:08:50.497Z,416.25
2019-05-14T11:09:50.594Z,416.25
2019-05-14T11:10:50.684Z,399.38
2019-05-14T11:11:50.768Z,388.13
2019-05-14T11:12:54.560Z,382.50
2019-05-14T11:13:50.989Z,376.88
2019-05-14T11:14:51.065Z,433.13
2019-05-14T11:15:51.164Z,601.88
2019-05-14T11:16:51.261Z,573.75
2019-05-14T11:17:51.356Z,568.13
2019-05-14T11:18:51.451Z,590.63
2019-05-14T11:19:51.559Z,601.88
2019-05-14T11:20:51.872Z,624.38
2019-05-14T11:21:51.740Z,500.63
2019-05-14T11:22:51.857Z,652.50
2019-05-14T11:23:51.936Z,455.63
2019-05-14T11:24:52.040Z,461.25
2019-05-14T11:25:52.136Z,461.25
2019-05-14T11:26:52.235Z,450.00
2019-05-14T11:27:52.327Z,444.38
2019-05-14T11:28:52.430Z,433.13
2019-05-14T11:29:52.527Z,421.88
2019-05-14T11:30:52.623Z,500.63
2019-05-14T11:31:52.719Z,393.75
2019-05-14T11:32:52.813Z,348.75
2019-05-14T11:33:52.907Z,337.50
2019-05-14T11:34:53.007Z,320.63
2019-05-14T11:35:53.104Z,466.88
2019-05-14T11:36:53.200Z,292.50
2019-05-14T11:37:53.294Z,399.38
2019-05-14T11:38:53.388Z,517.50
2019-05-14T11:39:53.483Z,371.25
2019-05-14T11:40:53.594Z,511.88
2019-05-14T11:41:53.692Z,511.88
2019-05-14T11:42:53.781Z,506.25
2019-05-14T11:43:53.883Z,511.88
2019-05-14T11:44:53.969Z,511.88
2019-05-14T11:45:54.062Z,511.88
2019-05-14T11:46:57.869Z,506.25
2019-05-14T11:47:54.256Z,489.38
2019-05-14T11:48:54.372Z,483.75
2019-05-14T11:49:54.467Z,495.00
2019-05-14T11:50:54.564Z,511.88
2019-05-14T11:52:04.277Z,500.63
2019-05-14T11:52:54.757Z,326.25
2019-05-14T11:53:54.858Z,450.00
2019-05-14T11:54:55.013Z,523.13
2019-05-14T11:55:55.102Z,433.13
2019-05-14T11:56:55.186Z,523.13
2019-05-14T11:57:55.287Z,466.88
2019-05-14T11:58:55.373Z,438.75
2019-05-14T11:59:57.989Z,247.50
2019-05-14T12:00:58.300Z,241.88
2019-05-14T12:01:55.661Z,258.75
2019-05-14T12:02:58.429Z,421.88
2019-05-14T12:03:55.851Z,450.00
2019-05-14T12:04:55.946Z,466.88
2019-05-14T12:05:58.448Z,483.75
2019-05-14T12:06:58.891Z,506.25
2019-05-14T12:07:56.230Z,540.00
2019-05-14T12:08:58.126Z,573.75
2019-05-14T12:09:56.430Z,613.13
2019-05-14T12:10:59.040Z,624.38
2019-05-14T12:11:58.764Z,658.13
2019-05-14T12:12:58.467Z,658.13
2019-05-14T12:13:59.613Z,658.13
2019-05-14T12:14:58.216Z,652.50
2019-05-14T12:15:59.046Z,478.13
2019-05-14T12:16:59.740Z,675.00
2019-05-14T12:17:59.606Z,523.13
2019-05-14T12:18:59.002Z,461.25
2019-05-14T12:19:59.379Z,450.00
2019-05-14T12:20:59.332Z,438.75
2019-05-14T12:22:06.750Z,433.13
2019-05-14T12:22:59.260Z,410.63
2019-05-14T12:24:04.602Z,405.00
2019-05-14T12:24:58.425Z,399.38
2019-05-14T12:25:58.740Z,382.50
2019-05-14T12:26:58.593Z,523.13
2019-05-14T12:27:58.960Z,365.63
2019-05-14T12:28:59.421Z,303.75
2019-05-14T12:29:59.898Z,270.00
2019-05-14T12:30:58.525Z,253.13
2019-05-14T12:31:58.720Z,258.75
2019-05-14T12:32:59.160Z,264.38
2019-05-14T12:33:58.747Z,286.88
2019-05-14T12:34:59.387Z,303.75
2019-05-14T12:36:00.515Z,337.50
2019-05-14T12:36:59.029Z,388.13
2019-05-14T12:37:59.134Z,646.88
2019-05-14T12:38:59.347Z,680.63
2019-05-14T12:39:59.312Z,691.88
2019-05-14T12:40:59.416Z,556.88
2019-05-14T12:41:59.503Z,551.25
2019-05-14T12:42:59.619Z,579.38
2019-05-14T12:43:59.694Z,641.25